Time;durP1;ratioP1;P1;durP2;ratioP2;P2;SDS_P1;SDS_P2;PMS_P1;PMS_P2;Temp;Humidity;BMP_temperature;BMP_pressure;BME280_temperature;BME280_humidity;BME280_pressure;Samples;Min_cycle;Max_cycle;Signal;HPM_P1;HPM_P2
2023/06/19 00:00:07;;;;;;;8.35;7.47;;;;;;;21.57;59.14;100651.09;1027556;28;20058;-44
2023/06/19 00:00:45;;;;;;;7.50;6.75;;;;;;;21.57;59.16;100653.81;1029648;28;20513;-45
2023/06/19 00:01:17;;;;;;;9.82;7.53;;;;;;;21.54;59.58;100654.41;1031846;28;20112;-45
2023/06/19 00:01:48;;;;;;;7.82;6.78;;;;;;;21.55;59.73;100650.59;1031667;28;20042;-44
2023/06/19 00:02:20;;;;;;;7.78;5.88;;;;;;;21.53;59.86;100652.78;1031876;28;20511;-44
2023/06/19 00:02:52;;;;;;;7.95;7.13;;;;;;;21.47;60.09;100659.38;1032081;28;20047;-46
2023/06/19 00:03:24;;;;;;;7.75;6.95;;;;;;;21.45;60.65;100658.88;1031604;28;20050;-44
2023/06/19 00:03:55;;;;;;;7.30;6.60;;;;;;;21.49;60.31;100651.78;1031636;28;20057;-44
2023/06/19 00:04:27;;;;;;;7.57;6.97;;;;;;;21.47;60.27;100660.19;1032119;28;20072;-45
2023/06/19 00:04:59;;;;;;;9.13;7.47;;;;;;;21.44;60.37;100657.28;1031804;28;20084;-44
2023/06/19 00:05:30;;;;;;;7.97;7.18;;;;;;;21.45;60.27;100656.16;1031908;28;20038;-45
2023/06/19 00:06:02;;;;;;;7.68;6.97;;;;;;;21.42;60.49;100656.75;1031860;28;20038;-46
2023/06/19 00:06:34;;;;;;;8.38;7.57;;;;;;;21.41;60.62;100663.28;1031370;28;20038;-44
2023/06/19 00:07:05;;;;;;;9.07;7.18;;;;;;;21.40;61.28;100664.38;1031713;28;20049;-44
2023/06/19 00:07:37;;;;;;;9.02;7.25;;;;;;;21.38;61.25;100664.66;1031902;28;20042;-44
2023/06/19 00:08:09;;;;;;;9.60;7.35;;;;;;;21.40;60.59;100658.97;1036012;28;20100;-44
2023/06/19 00:08:42;;;;;;;9.23;6.65;;;;;;;21.39;60.77;100658.16;1035811;28;20046;-45
2023/06/19 00:09:14;;;;;;;6.93;6.22;;;;;;;21.33;61.17;100653.88;1035839;28;20124;-46
2023/06/19 00:09:45;;;;;;;8.00;6.60;;;;;;;21.39;60.88;100657.34;1035718;28;20041;-44
2023/06/19 00:10:17;;;;;;;8.98;7.38;;;;;;;21.35;60.97;100654.38;1035983;28;20053;-45
2023/06/19 00:10:48;;;;;;;7.30;6.60;;;;;;;21.36;61.21;100652.50;1035691;28;20042;-44
2023/06/19 00:11:20;;;;;;;7.72;7.03;;;;;;;21.37;61.37;100654.94;1036112;28;20437;-44
2023/06/19 00:11:52;;;;;;;10.52;6.47;;;;;;;21.36;61.69;100652.50;1029561;28;20042;-44
2023/06/19 00:12:23;;;;;;;8.35;7.28;;;;;;;21.33;61.60;100651.16;1031559;28;20519;-47
2023/06/19 00:12:55;;;;;;;7.68;6.97;;;;;;;21.31;61.71;100653.38;1031973;28;20042;-44
2023/06/19 00:13:27;;;;;;;6.78;6.18;;;;;;;21.29;62.03;100658.28;1029646;28;20084;-44
2023/06/19 00:13:59;;;;;;;7.03;6.43;;;;;;;21.27;62.22;100655.84;1031506;28;20503;-44
2023/06/19 00:14:31;;;;;;;6.40;5.80;;;;;;;21.31;61.59;100650.66;1031850;28;20046;-46
2023/06/19 00:15:03;;;;;;;6.90;6.20;;;;;;;21.31;62.28;100655.28;1031930;28;20057;-44
2023/06/19 00:15:35;;;;;;;8.48;7.00;;;;;;;21.33;62.05;100653.88;1031739;28;20568;-44
2023/06/19 00:16:06;;;;;;;7.57;6.85;;;;;;;21.31;61.87;100647.16;1031838;28;20049;-44
2023/06/19 00:16:40;;;;;;;8.20;6.57;;;;;;;21.27;62.81;100649.63;1031740;28;20049;-44
2023/06/19 00:17:13;;;;;;;6.68;6.00;;;;;;;21.22;63.25;100647.78;1031894;28;20154;-45
2023/06/19 00:17:44;;;;;;;7.95;6.28;;;;;;;21.23;63.19;100646.72;1031727;28;20050;-44
2023/06/19 00:18:17;;;;;;;7.45;6.43;;;;;;;21.25;62.71;100649.13;1031425;28;20480;-44
2023/06/19 00:18:49;;;;;;;10.43;7.80;;;;;;;21.18;62.92;100645.94;1031480;28;20546;-45
2023/06/19 00:19:21;;;;;;;8.15;7.32;;;;;;;21.17;63.35;100645.16;1031845;28;20038;-44
2023/06/19 00:19:53;;;;;;;8.93;7.00;;;;;;;21.20;62.91;100643.75;1031608;28;20057;-44
2023/06/19 00:20:24;;;;;;;6.75;6.10;;;;;;;21.16;63.18;100643.53;1031936;28;20602;-45
2023/06/19 00:20:57;;;;;;;7.82;6.03;;;;;;;21.14;63.48;100651.16;1032042;28;20038;-44
2023/06/19 00:21:29;;;;;;;7.30;6.55;;;;;;;21.15;63.35;100641.91;1031616;28;20096;-44
2023/06/19 00:22:00;;;;;;;7.18;6.38;;;;;;;21.10;63.96;100639.28;1031494;28;20125;-44
2023/06/19 00:22:32;;;;;;;7.40;6.68;;;;;;;21.12;63.84;100645.22;1031723;28;20050;-44
2023/06/19 00:23:04;;;;;;;7.75;6.97;;;;;;;21.08;64.20;100646.88;1031281;28;20050;-44
2023/06/19 00:23:36;;;;;;;7.57;6.88;;;;;;;21.06;63.84;100640.94;1031992;28;20401;-46
2023/06/19 00:24:07;;;;;;;8.50;7.00;;;;;;;21.12;63.30;100636.28;1034814;28;20061;-45
2023/06/19 00:24:39;;;;;;;8.02;7.22;;;;;;;21.10;64.34;100650.13;1031902;28;20121;-46
2023/06/19 00:25:11;;;;;;;7.50;6.15;;;;;;;20.98;65.44;100650.53;1031774;28;20495;-44
2023/06/19 00:25:44;;;;;;;6.32;5.75;;;;;;;20.94;65.79;100651.41;1031361;28;20097;-44
2023/06/19 00:26:15;;;;;;;8.02;6.97;;;;;;;20.90;65.94;100653.88;1031729;28;20066;-44
2023/06/19 00:26:47;;;;;;;8.32;6.93;;;;;;;20.90;65.59;100650.38;1031394;28;20046;-44
2023/06/19 00:27:19;;;;;;;6.65;6.00;;;;;;;20.92;65.19;100648.19;1031760;28;20068;-44
2023/06/19 00:27:51;;;;;;;10.05;6.97;;;;;;;20.89;65.19;100643.34;1035613;28;20045;-44
2023/06/19 00:28:23;;;;;;;8.10;6.55;;;;;;;20.93;66.05;100649.78;1035489;28;20049;-44
2023/06/19 00:28:54;;;;;;;8.02;6.57;;;;;;;20.93;64.71;100645.19;1031249;28;20471;-45
2023/06/19 00:29:27;;;;;;;7.65;6.95;;;;;;;20.92;64.70;100648.19;1032046;28;20129;-44
2023/06/19 00:30:01;;;;;;;6.80;6.18;;;;;;;20.90;65.50;100650.38;1035343;28;20518;-45
2023/06/19 00:30:33;;;;;;;7.40;6.60;;;;;;;20.93;65.40;100652.50;1031858;28;20560;-44
2023/06/19 00:31:06;;;;;;;8.68;7.32;;;;;;;20.88;65.87;100653.38;1035487;28;20042;-45
2023/06/19 00:31:38;;;;;;;7.75;6.25;;;;;;;20.76;67.91;100655.66;1028658;28;20155;-45
2023/06/19 00:32:10;;;;;;;10.13;6.78;;;;;;;20.70;66.87;100650.59;1028174;28;20042;-44
2023/06/19 00:32:49;;;;;;;9.27;7.03;;;;;;;20.72;66.95;100649.22;1027148;28;20038;-44
2023/06/19 00:33:21;;;;;;;7.78;6.97;;;;;;;20.67;66.78;100647.38;1024362;28;20047;-44
2023/06/19 00:33:57;;;;;;;7.65;6.95;;;;;;;20.64;67.85;100661.50;1027250;28;20471;-44
2023/06/19 00:34:30;;;;;;;8.05;7.25;;;;;;;20.65;67.47;100657.69;1025469;28;20720;-45
2023/06/19 00:35:03;;;;;;;6.43;5.78;;;;;;;20.65;66.71;100649.56;1028729;28;20053;-46
2023/06/19 00:35:35;;;;;;;7.85;6.85;;;;;;;20.75;66.12;100642.41;1035574;28;20038;-45
2023/06/19 00:36:10;;;;;;;7.55;6.85;;;;;;;20.75;66.55;100645.13;1035262;28;20120;-44
2023/06/19 00:36:42;;;;;;;6.90;6.30;;;;;;;20.73;66.72;100650.00;1035791;28;20034;-44
2023/06/19 00:37:13;;;;;;;7.25;6.32;;;;;;;20.75;66.58;100653.25;1035885;28;20049;-44
2023/06/19 00:37:45;;;;;;;6.03;5.53;;;;;;;20.86;65.89;100657.47;1035740;28;20137;-44
2023/06/19 00:38:17;;;;;;;5.88;5.13;;;;;;;20.80;66.23;100655.88;1035886;28;20042;-44
2023/06/19 00:38:48;;;;;;;9.55;6.40;;;;;;;20.80;66.65;100656.69;1035228;28;20483;-44
2023/06/19 00:39:20;;;;;;;7.50;6.43;;;;;;;20.72;68.13;100660.03;1035419;28;20531;-45
2023/06/19 00:39:52;;;;;;;6.80;6.07;;;;;;;20.73;68.49;100660.84;1035501;28;20046;-46
2023/06/19 00:40:28;;;;;;;9.48;6.20;;;;;;;20.72;68.66;100662.75;1031776;28;20050;-46
2023/06/19 00:41:00;;;;;;;7.55;6.50;;;;;;;20.66;68.39;100662.00;1035475;28;20038;-44
2023/06/19 00:41:32;;;;;;;6.30;5.70;;;;;;;20.62;70.05;100674.50;1031501;28;20046;-45
2023/06/19 00:42:04;;;;;;;6.93;6.32;;;;;;;20.72;69.17;100670.06;1028196;28;20042;-44
2023/06/19 00:42:35;;;;;;;7.13;6.45;;;;;;;20.74;68.02;100668.69;1031340;28;20635;-45
2023/06/19 00:43:07;;;;;;;7.13;6.45;;;;;;;20.82;66.94;100665.34;1036016;28;20455;-45
2023/06/19 00:43:39;;;;;;;15.60;6.95;;;;;;;20.82;66.59;100665.34;1039980;28;20060;-45
2023/06/19 00:44:11;;;;;;;6.43;5.93;;;;;;;20.97;66.06;100664.34;1043613;28;20044;-44
2023/06/19 00:44:43;;;;;;;10.50;6.15;;;;;;;20.95;66.31;100655.72;1038742;28;20041;-44
2023/06/19 00:45:14;;;;;;;7.60;5.70;;;;;;;20.92;66.48;100659.00;1031344;28;20038;-46
2023/06/19 00:45:46;;;;;;;7.30;6.40;;;;;;;20.95;66.29;100667.34;1027183;28;20058;-44
2023/06/19 00:46:18;;;;;;;8.25;6.40;;;;;;;20.94;66.40;100662.22;1027746;28;20054;-44
2023/06/19 00:46:51;;;;;;;6.20;5.65;;;;;;;20.89;67.01;100668.50;1031877;28;20062;-45
2023/06/19 00:47:25;;;;;;;6.07;5.32;;;;;;;20.97;67.01;100667.88;1040075;28;20076;-44
2023/06/19 00:47:59;;;;;;;11.05;5.72;;;;;;;20.95;66.94;100666.53;1043434;28;20041;-45
2023/06/19 00:48:31;;;;;;;6.45;5.85;;;;;;;21.00;67.18;100666.47;1043722;28;20086;-44
2023/06/19 00:49:03;;;;;;;6.80;6.20;;;;;;;21.02;67.21;100674.31;1041250;28;20096;-45
2023/06/19 00:49:34;;;;;;;8.35;6.00;;;;;;;21.00;67.07;100666.47;1035807;28;20477;-45
2023/06/19 00:50:06;;;;;;;6.43;5.72;;;;;;;21.09;66.56;100664.75;1035630;28;20054;-43
2023/06/19 00:50:38;;;;;;;10.10;5.53;;;;;;;21.10;65.98;100670.97;1035527;28;20037;-44
2023/06/19 00:51:10;;;;;;;6.85;6.13;;;;;;;21.19;66.01;100669.22;1035421;28;20520;-45
2023/06/19 00:51:42;;;;;;;6.47;5.60;;;;;;;21.16;66.28;100673.31;1031088;28;20038;-44
2023/06/19 00:52:17;;;;;;;6.55;5.95;;;;;;;21.17;66.64;100677.66;1032393;28;20147;-46
2023/06/19 00:52:49;;;;;;;6.50;5.68;;;;;;;21.11;66.78;100678.81;1035529;28;20065;-45
2023/06/19 00:53:23;;;;;;;8.73;6.25;;;;;;;21.09;66.99;100677.47;1035943;28;20049;-44
2023/06/19 00:53:55;;;;;;;6.00;5.40;;;;;;;21.13;66.70;100670.41;1038164;28;20041;-44
2023/06/19 00:54:26;;;;;;;6.18;5.68;;;;;;;21.11;66.70;100673.41;1035696;28;20049;-45
2023/06/19 00:54:58;;;;;;;6.10;5.50;;;;;;;21.11;67.79;100681.53;1035782;28;20049;-45
2023/06/19 00:55:31;;;;;;;5.95;5.35;;;;;;;21.14;67.19;100672.81;1035682;28;20053;-44
2023/06/19 00:56:03;;;;;;;6.32;5.78;;;;;;;21.16;66.83;100676.03;1035386;28;20056;-44
2023/06/19 00:56:37;;;;;;;8.30;5.65;;;;;;;21.14;66.65;100672.81;1031518;28;20046;-44
2023/06/19 00:57:09;;;;;;;5.97;5.47;;;;;;;21.23;66.13;100671.09;1031308;28;20046;-45
2023/06/19 00:57:41;;;;;;;7.32;6.15;;;;;;;21.17;66.55;100674.94;1027861;28;20081;-45
2023/06/19 00:58:13;;;;;;;6.53;5.93;;;;;;;21.17;66.43;100684.97;1028095;28;20051;-45
2023/06/19 00:58:44;;;;;;;6.47;5.88;;;;;;;21.24;66.05;100680.84;1031574;28;20046;-44
2023/06/19 00:59:19;;;;;;;5.93;5.13;;;;;;;21.24;66.96;100682.72;1027655;28;20497;-44
2023/06/19 00:59:52;;;;;;;6.65;6.03;;;;;;;21.29;66.84;100677.25;1032129;28;20528;-44
2023/06/19 01:00:24;;;;;;;6.13;5.60;;;;;;;21.24;66.35;100682.72;1035339;28;20463;-45
2023/06/19 01:00:58;;;;;;;5.82;5.22;;;;;;;21.24;67.02;100694.38;1032362;28;20050;-44
2023/06/19 01:01:40;;;;;;;6.72;5.78;;;;;;;21.30;66.37;100692.41;1031245;28;20043;-45
2023/06/19 01:02:12;;;;;;;7.20;5.95;;;;;;;21.32;66.04;100683.97;1028627;28;20039;-44
2023/06/19 01:02:44;;;;;;;5.90;5.30;;;;;;;21.26;66.21;100689.47;1025198;28;20508;-44
2023/06/19 01:03:16;;;;;;;5.25;4.75;;;;;;;21.27;66.25;100688.38;1027261;28;20572;-44
2023/06/19 01:03:49;;;;;;;6.43;5.55;;;;;;;21.33;66.05;100680.16;1027797;28;20105;-46
2023/06/19 01:04:22;;;;;;;7.00;6.40;;;;;;;21.31;65.81;100682.38;1028303;28;20053;-44
2023/06/19 01:04:56;;;;;;;6.65;5.65;;;;;;;21.29;66.49;100680.75;1031354;28;20409;-44
2023/06/19 01:05:27;;;;;;;6.13;5.53;;;;;;;21.27;66.75;100682.16;1031090;28;20416;-44
2023/06/19 01:06:01;;;;;;;6.38;5.80;;;;;;;21.37;66.12;100681.22;1031665;28;20042;-44
2023/06/19 01:06:48;;;;;;;8.73;6.15;;;;;;;21.34;66.06;100679.06;1031426;28;20043;-46
2023/06/19 01:07:47;;;;;;;7.47;5.40;;;;;;;21.42;65.49;100678.44;1022395;28;20051;-44
2023/06/19 01:08:31;;;;;;;6.75;5.75;;;;;;;21.39;65.75;100676.31;1029011;28;20545;-44
2023/06/19 01:09:07;;;;;;;6.07;5.47;;;;;;;21.38;65.63;100674.72;1033245;28;20042;-45
2023/06/19 01:09:46;;;;;;;6.63;5.97;;;;;;;21.38;65.73;100683.63;1035414;28;20038;-45
2023/06/19 01:10:27;;;;;;;6.10;5.50;;;;;;;21.44;65.50;100676.25;1035647;28;20583;-44
2023/06/19 01:10:59;;;;;;;;;;;;;;;21.46;65.46;100677.56;1027867;28;20039;-44
2023/06/19 01:11:38;;;;;;;7.38;5.80;;;;;;;21.40;66.20;100680.63;1030687;28;20017;-44
2023/06/19 01:12:15;;;;;;;7.70;6.15;;;;;;;21.42;66.13;100681.16;1028653;28;20043;-45
2023/06/19 01:12:56;;;;;;;5.32;4.82;;;;;;;21.39;66.33;100682.53;1026662;28;20074;-45
2023/06/19 01:13:36;;;;;;;8.20;5.93;;;;;;;21.41;66.42;100682.25;1030964;28;20045;-46
2023/06/19 01:14:21;;;;;;;6.05;5.38;;;;;;;21.39;66.26;100679.84;1026980;28;20129;-44
2023/06/19 01:14:56;;;;;;;10.75;5.80;;;;;;;21.38;66.52;100689.06;1023271;28;20039;-46
2023/06/19 01:15:28;;;;;;;11.85;6.57;;;;;;;21.40;66.30;100686.06;1023009;28;20043;-45
2023/06/19 01:16:02;;;;;;;6.25;5.68;;;;;;;21.40;66.37;100694.19;1025973;28;20047;-44
2023/06/19 01:16:34;;;;;;;5.57;4.75;;;;;;;21.38;66.89;100694.47;1021444;29;20043;-46
2023/06/19 01:17:06;;;;;;;6.88;5.70;;;;;;;21.39;66.59;100689.88;1019859;29;20525;-46
2023/06/19 01:17:38;;;;;;;5.95;5.35;;;;;;;21.35;67.44;100699.66;1022209;28;20051;-44
2023/06/19 01:18:12;;;;;;;5.95;5.35;;;;;;;21.37;67.04;100698.28;1024252;28;20117;-45
2023/06/19 01:18:48;;;;;;;5.57;5.07;;;;;;;21.38;66.83;100688.25;1032538;28;20058;-44
2023/06/19 01:19:21;;;;;;;5.57;5.07;;;;;;;21.34;67.37;100698.03;1026698;28;20046;-45
2023/06/19 01:19:54;;;;;;;6.40;5.82;;;;;;;21.32;67.63;100694.81;1027431;28;20061;-44
2023/06/19 01:20:25;;;;;;;6.15;5.32;;;;;;;21.35;66.97;100699.66;1026739;28;20042;-44
2023/06/19 01:21:15;;;;;;;5.72;5.13;;;;;;;21.44;66.68;100697.91;1024877;28;20039;-45
2023/06/19 01:21:47;;;;;;;7.00;5.20;;;;;;;21.42;67.55;100694.69;1027157;28;20043;-45
2023/06/19 01:22:27;;;;;;;7.75;5.30;;;;;;;21.39;67.78;100706.13;1022974;28;20549;-45
2023/06/19 01:23:07;;;;;;;6.00;5.32;;;;;;;21.44;67.59;100697.91;1027219;28;20046;-45
2023/06/19 01:23:39;;;;;;;6.32;5.43;;;;;;;21.46;67.25;100701.16;1029485;28;20054;-45
2023/06/19 01:24:11;;;;;;;6.07;5.47;;;;;;;21.41;67.40;100688.47;1031133;28;20423;-44
2023/06/19 01:24:43;;;;;;;5.35;4.85;;;;;;;21.41;68.00;100693.09;1030895;28;20050;-45
2023/06/19 01:25:15;;;;;;;7.43;5.60;;;;;;;21.36;68.65;100701.25;1030785;28;20042;-45
2023/06/19 01:25:47;;;;;;;5.57;5.07;;;;;;;21.33;68.21;100701.84;1026664;28;20043;-44
2023/06/19 01:26:22;;;;;;;5.15;4.65;;;;;;;21.41;67.45;100703.94;1027844;28;20465;-45
2023/06/19 01:26:53;;;;;;;6.20;5.43;;;;;;;21.39;67.52;100704.22;1027602;28;20046;-57
2023/06/19 01:27:25;;;;;;;8.95;5.15;;;;;;;21.40;68.19;100707.75;1027738;28;20054;-56
2023/06/19 01:27:57;;;;;;;6.65;5.60;;;;;;;21.35;69.51;100715.91;1026991;28;20343;-56
2023/06/19 01:28:30;;;;;;;5.68;4.97;;;;;;;21.29;69.69;100705.13;1027218;28;20086;-56
2023/06/19 01:29:01;;;;;;;6.60;5.82;;;;;;;21.29;69.33;100702.44;1024829;28;20113;-55
2023/06/19 01:29:33;;;;;;;13.50;5.07;;;;;;;21.25;68.91;100701.41;1027465;28;20190;-56
2023/06/19 01:30:06;;;;;;;9.23;5.80;;;;;;;21.27;68.47;100703.81;1027153;28;20050;-56
2023/06/19 01:30:41;;;;;;;8.93;5.47;;;;;;;21.35;68.14;100699.66;1031056;28;20038;-57
2023/06/19 01:31:20;;;;;;;6.07;5.03;;;;;;;21.44;67.56;100697.91;1026252;28;20044;-57
2023/06/19 01:32:04;;;;;;;5.82;5.22;;;;;;;21.45;67.75;100694.13;1031444;28;20038;-57
2023/06/19 01:32:45;;;;;;;7.18;5.35;;;;;;;21.49;67.37;100695.94;1031224;28;20042;-56
2023/06/19 01:33:22;;;;;;;6.18;4.60;;;;;;;21.49;67.48;100689.72;1027192;28;20043;-56
2023/06/19 01:33:54;;;;;;;5.40;4.90;;;;;;;21.50;67.68;100697.56;1018968;29;20039;-57
2023/06/19 01:34:27;;;;;;;7.15;4.95;;;;;;;21.49;67.30;100695.94;1020274;29;20529;-45
2023/06/19 01:34:59;;;;;;;7.00;5.78;;;;;;;21.48;67.77;100698.94;1024491;28;20129;-44
2023/06/19 01:35:36;;;;;;;8.23;5.82;;;;;;;21.46;68.10;100693.00;1027976;28;20102;-56
2023/06/19 01:36:09;;;;;;;5.45;4.95;;;;;;;21.47;67.70;100694.63;1029895;28;20045;-56
2023/06/19 01:36:41;;;;;;;5.32;4.82;;;;;;;21.42;68.13;100694.69;1024334;28;20105;-46
2023/06/19 01:37:13;;;;;;;6.93;5.13;;;;;;;21.43;68.42;100696.31;1023437;28;20041;-44
2023/06/19 01:37:47;;;;;;;5.22;4.72;;;;;;;21.44;67.97;100698.72;1024163;28;20044;-45
2023/06/19 01:38:25;;;;;;;5.95;5.45;;;;;;;21.36;68.75;100702.06;1024083;28;20035;-44
2023/06/19 01:38:58;;;;;;;7.50;5.15;;;;;;;21.33;69.52;100705.38;1025168;28;20604;-45
2023/06/19 01:39:30;;;;;;;6.20;5.55;;;;;;;21.32;69.75;100697.53;1023223;28;20046;-44
2023/06/19 01:40:04;;;;;;;5.22;4.72;;;;;;;21.35;68.89;100695.03;1024880;28;20047;-44
2023/06/19 01:40:36;;;;;;;6.85;6.07;;;;;;;21.31;68.98;100698.63;1028690;28;20214;-44
2023/06/19 01:41:09;;;;;;;5.75;5.25;;;;;;;21.28;69.02;100695.41;1028016;28;20045;-45
2023/06/19 01:41:42;;;;;;;5.47;4.97;;;;;;;21.29;68.79;100707.84;1031301;28;20093;-45
2023/06/19 01:42:15;;;;;;;8.48;4.70;;;;;;;21.37;68.67;100692.88;1027966;28;20051;-56
2023/06/19 01:42:49;;;;;;;9.32;5.78;;;;;;;21.32;68.90;100700.22;1028649;28;20050;-57
2023/06/19 01:43:21;;;;;;;6.75;5.70;;;;;;;21.32;69.41;100706.47;1027329;28;20130;-55
2023/06/19 01:43:56;;;;;;;8.15;5.47;;;;;;;21.31;69.63;100710.28;1028375;28;20050;-57
2023/06/19 01:44:28;;;;;;;6.55;4.47;;;;;;;21.27;70.16;100707.34;1030850;28;20056;-56
2023/06/19 01:45:02;;;;;;;5.22;4.72;;;;;;;21.35;69.08;100707.78;1031629;28;20042;-56
2023/06/19 01:45:34;;;;;;;6.63;5.38;;;;;;;21.29;69.64;100705.13;1027313;28;20412;-57
2023/06/19 01:46:06;;;;;;;5.88;4.93;;;;;;;21.24;70.67;100710.63;1023602;28;20537;-56
2023/06/19 01:46:39;;;;;;;7.30;5.07;;;;;;;21.21;70.96;100705.75;1019511;29;20409;-56
2023/06/19 01:47:11;;;;;;;5.45;4.95;;;;;;;21.23;69.88;100709.03;1016244;29;20047;-57
2023/06/19 01:47:46;;;;;;;5.13;4.65;;;;;;;21.27;69.41;100704.63;1016759;29;20065;-57
2023/06/19 01:48:18;;;;;;;5.53;5.03;;;;;;;21.25;69.37;100706.81;1026621;28;20050;-56
2023/06/19 01:48:49;;;;;;;4.88;4.47;;;;;;;21.35;69.04;100710.50;1028145;28;20058;-57
2023/06/19 01:49:21;;;;;;;5.38;4.90;;;;;;;21.38;68.98;100709.94;1025402;28;20043;-56
2023/06/19 01:49:53;;;;;;;6.80;5.03;;;;;;;21.34;68.88;100701.56;1027176;28;20039;-57
2023/06/19 01:50:24;;;;;;;5.63;5.13;;;;;;;21.33;69.49;100712.69;1023401;28;20079;-56
2023/06/19 01:50:56;;;;;;;7.10;4.60;;;;;;;21.32;69.37;100701.03;1027505;28;20410;-57
2023/06/19 01:51:28;;;;;;;6.57;4.85;;;;;;;21.26;70.18;100710.34;1023437;28;20051;-56
2023/06/19 01:52:00;;;;;;;5.65;5.05;;;;;;;21.24;71.09;100716.06;1027501;28;20046;-57
2023/06/19 01:52:33;;;;;;;9.30;5.32;;;;;;;21.25;71.08;100706.03;1031272;28;20117;-56
2023/06/19 01:53:05;;;;;;;6.32;5.15;;;;;;;21.29;71.33;100710.56;1031210;28;20049;-57
2023/06/19 01:53:37;;;;;;;7.07;5.75;;;;;;;21.23;71.73;100709.03;1031418;28;20039;-56
2023/06/19 01:54:08;;;;;;;4.82;4.43;;;;;;;21.21;71.84;100704.97;1031598;28;20060;-57
2023/06/19 01:54:40;;;;;;;5.97;5.43;;;;;;;21.25;70.92;100706.03;1031810;28;20046;-57
2023/06/19 01:55:12;;;;;;;8.70;4.55;;;;;;;21.24;70.50;100707.91;1031877;28;20042;-56
2023/06/19 01:55:43;;;;;;;8.82;5.65;;;;;;;21.28;70.61;100700.81;1031230;28;20069;-56
2023/06/19 01:56:15;;;;;;;5.32;4.82;;;;;;;21.29;70.09;100701.63;1027484;28;20432;-56
2023/06/19 01:56:47;;;;;;;6.63;5.65;;;;;;;21.29;70.45;100705.13;1027924;28;20572;-46
2023/06/19 01:57:25;;;;;;;6.78;5.47;;;;;;;21.32;70.00;100700.22;1024822;28;20047;-56
2023/06/19 01:57:57;;;;;;;6.53;5.32;;;;;;;21.29;69.78;100704.34;1019101;29;20142;-57
2023/06/19 01:58:29;;;;;;;7.75;5.28;;;;;;;21.31;70.18;100698.63;1020124;28;20055;-57
2023/06/19 01:59:01;;;;;;;6.10;5.45;;;;;;;21.32;70.66;100705.66;1021239;28;20126;-56
2023/06/19 01:59:32;;;;;;;5.15;4.65;;;;;;;21.30;70.81;100708.66;1017143;29;20589;-57
2023/06/19 02:00:07;;;;;;;6.55;5.28;;;;;;;21.12;72.84;100706.72;1028331;28;20185;-57
2023/06/19 02:00:44;;;;;;;7.07;5.25;;;;;;;21.18;72.14;100709.06;1033476;28;20054;-56
2023/06/19 02:01:16;;;;;;;5.32;4.82;;;;;;;21.20;71.08;100709.56;1034007;28;20133;-57
2023/06/19 02:01:47;;;;;;;6.18;5.55;;;;;;;21.26;70.51;100707.63;1034743;28;20053;-56
2023/06/19 02:02:19;;;;;;;10.13;5.57;;;;;;;21.24;70.71;100705.22;1032040;28;20070;-56
2023/06/19 02:02:54;;;;;;;5.55;4.95;;;;;;;21.25;70.62;100708.72;1028638;28;20054;-57
2023/06/19 02:03:25;;;;;;;5.85;5.07;;;;;;;21.27;70.21;100709.25;1032077;28;20536;-56
2023/06/19 02:03:57;;;;;;;7.18;5.15;;;;;;;21.26;71.20;100705.72;1031975;28;20057;-57
2023/06/19 02:04:30;;;;;;;5.05;4.55;;;;;;;21.23;71.24;100713.59;1032102;28;20050;-55
2023/06/19 02:05:02;;;;;;;8.52;4.78;;;;;;;21.25;70.97;100704.13;1032518;28;20566;-56
2023/06/19 02:05:39;;;;;;;6.15;5.55;;;;;;;21.21;70.89;100713.91;1031181;28;20057;-56
2023/06/19 02:06:10;;;;;;;6.43;5.55;;;;;;;21.15;71.50;100712.34;1032081;28;20543;-56
2023/06/19 02:06:42;;;;;;;5.97;5.43;;;;;;;21.15;71.18;100712.34;1032127;28;20050;-57
2023/06/19 02:07:14;;;;;;;6.30;5.57;;;;;;;21.18;71.13;100711.75;1029150;28;20043;-57
2023/06/19 02:07:45;;;;;;;6.22;4.97;;;;;;;21.15;71.15;100706.94;1031918;28;20113;-56
2023/06/19 02:08:19;;;;;;;5.85;5.35;;;;;;;21.18;71.50;100711.75;1031914;28;20369;-56
2023/06/19 02:08:51;;;;;;;6.22;5.65;;;;;;;21.13;72.07;100711.84;1032274;28;20125;-57
2023/06/19 02:09:23;;;;;;;5.43;4.97;;;;;;;21.12;71.88;100714.84;1031891;28;20193;-57
2023/06/19 02:09:54;;;;;;;5.20;4.70;;;;;;;21.08;73.20;100709.16;1031896;28;20116;-56
2023/06/19 02:10:26;;;;;;;7.32;4.95;;;;;;;21.04;73.62;100708.13;1031963;28;20053;-56
2023/06/19 02:10:59;;;;;;;5.53;4.95;;;;;;;21.05;72.58;100706.22;1028663;28;20529;-56
2023/06/19 02:11:31;;;;;;;5.85;5.18;;;;;;;21.08;72.08;100705.66;1027899;28;20051;-57
2023/06/19 02:12:03;;;;;;;5.63;4.95;;;;;;;21.10;72.51;100714.31;1029902;28;20046;-57
2023/06/19 02:12:34;;;;;;;5.78;4.88;;;;;;;21.09;72.00;100697.25;1032227;28;20045;-57
2023/06/19 02:13:06;;;;;;;5.63;5.13;;;;;;;21.00;72.82;100701.69;1036462;28;20520;-57
2023/06/19 02:13:38;;;;;;;5.18;4.68;;;;;;;20.94;73.49;100710.97;1033461;28;20436;-57
2023/06/19 02:14:11;;;;;;;5.93;4.75;;;;;;;20.96;73.06;100708.78;1031883;28;20069;-56
2023/06/19 02:14:43;;;;;;;6.28;5.68;;;;;;;20.92;72.90;100707.75;1028024;28;20073;-56
2023/06/19 02:15:16;;;;;;;8.77;5.65;;;;;;;20.89;73.20;100702.91;1033681;28;20070;-57
2023/06/19 02:15:49;;;;;;;5.70;4.95;;;;;;;20.92;72.79;100710.44;1035954;28;20560;-57
2023/06/19 02:16:20;;;;;;;6.00;5.45;;;;;;;20.96;72.44;100703.38;1036584;28;20102;-55
2023/06/19 02:16:53;;;;;;;7.88;5.43;;;;;;;20.97;71.93;100700.38;1035487;28;20500;-57
2023/06/19 02:17:25;;;;;;;5.40;4.90;;;;;;;20.96;72.23;100709.59;1032300;28;20097;-56
2023/06/19 02:17:57;;;;;;;5.70;4.93;;;;;;;20.95;72.46;100707.97;1031216;28;20054;-57
2023/06/19 02:18:29;;;;;;;6.07;5.03;;;;;;;20.91;73.00;100708.84;1032762;28;20087;-56
2023/06/19 02:19:01;;;;;;;5.40;4.90;;;;;;;20.91;72.83;100708.84;1036312;28;20500;-53
2023/06/19 02:19:34;;;;;;;5.10;4.68;;;;;;;20.93;72.63;100706.66;1036895;28;20388;-46
2023/06/19 02:20:09;;;;;;;5.65;5.07;;;;;;;21.01;72.03;100711.41;1036193;28;20488;-44
2023/06/19 02:20:41;;;;;;;6.70;4.78;;;;;;;20.95;72.24;100712.59;1035995;28;20601;-44
2023/06/19 02:21:12;;;;;;;7.40;4.88;;;;;;;20.97;72.13;100713.09;1031715;28;20057;-45
2023/06/19 02:21:44;;;;;;;7.65;6.03;;;;;;;20.97;72.05;100710.38;1032742;28;20049;-45
2023/06/19 02:22:17;;;;;;;5.78;5.03;;;;;;;20.95;72.11;100715.28;1036096;28;20531;-44
2023/06/19 02:22:48;;;;;;;6.97;5.30;;;;;;;20.95;72.16;100713.38;1036123;28;20404;-44
2023/06/19 02:23:20;;;;;;;6.32;5.72;;;;;;;20.91;72.65;100719.66;1035808;28;20061;-44
2023/06/19 02:23:51;;;;;;;6.20;4.65;;;;;;;20.90;73.05;100712.66;1036140;28;20056;-44
2023/06/19 02:24:23;;;;;;;5.55;4.95;;;;;;;20.90;73.18;100716.16;1036252;28;20128;-45
2023/06/19 02:24:55;;;;;;;7.70;5.75;;;;;;;20.82;73.88;100721.41;1036048;28;20534;-44
2023/06/19 02:25:26;;;;;;;8.38;4.82;;;;;;;20.80;73.90;100715.44;1036506;28;20125;-44
2023/06/19 02:25:58;;;;;;;5.90;5.07;;;;;;;20.83;73.24;100721.13;1036444;28;20038;-44
2023/06/19 02:26:30;;;;;;;5.25;4.75;;;;;;;20.80;73.77;100720.84;1036376;28;20052;-44
2023/06/19 02:27:02;;;;;;;7.15;5.32;;;;;;;20.72;74.42;100718.78;1036235;28;20131;-44
2023/06/19 02:27:33;;;;;;;5.80;5.28;;;;;;;20.64;74.97;100718.31;1036564;28;20034;-45
2023/06/19 02:28:05;;;;;;;5.45;5.05;;;;;;;20.61;74.79;100718.91;1035967;28;20136;-44
2023/06/19 02:28:37;;;;;;;6.13;4.95;;;;;;;20.62;74.61;100720.50;1032050;28;20080;-44
2023/06/19 02:29:10;;;;;;;5.07;4.63;;;;;;;20.59;74.69;100729.22;1028111;28;20042;-44
2023/06/19 02:29:41;;;;;;;13.52;6.15;;;;;;;20.52;75.12;100731.41;1024553;28;20039;-45
2023/06/19 02:30:13;;;;;;;9.75;5.10;;;;;;;20.49;75.94;100731.19;1028639;28;20051;-44
2023/06/19 02:30:45;;;;;;;6.20;5.05;;;;;;;20.56;75.42;100731.69;1032665;28;20449;-45
2023/06/19 02:31:17;;;;;;;9.48;5.60;;;;;;;20.50;75.14;100733.59;1036184;28;20045;-44
2023/06/19 02:31:49;;;;;;;8.43;5.47;;;;;;;20.46;75.43;100729.84;1032419;28;20405;-45
2023/06/19 02:32:21;;;;;;;5.85;5.35;;;;;;;20.46;75.56;100724.44;1036231;28;20049;-44
2023/06/19 02:32:52;;;;;;;6.13;5.00;;;;;;;20.37;76.37;100736.94;1036238;28;20128;-44
2023/06/19 02:33:24;;;;;;;6.25;5.30;;;;;;;20.36;76.72;100727.22;1032360;28;20051;-44